createdAt,value
2018-02-10T00:01:28.244Z,0.06
2018-02-10T00:02:27.992Z,0.06
2018-02-10T00:03:27.593Z,0.09
2018-02-10T00:04:28.234Z,0.05
2018-02-10T00:05:27.961Z,-0.02
2018-02-10T00:06:28.512Z,0.08
2018-02-10T00:07:28.514Z,0.09
2018-02-10T00:08:29.063Z,0.05
2018-02-10T00:09:28.961Z,0.08
2018-02-10T00:10:29.347Z,0.02
2018-02-10T00:11:29.519Z,0.05
2018-02-10T00:12:29.712Z,0.08
2018-02-10T00:13:29.225Z,0.1
2018-02-10T00:14:30.231Z,0.23
2018-02-10T00:15:29.819Z,0.14
2018-02-10T00:16:29.442Z,0.14
2018-02-10T00:17:30.399Z,0.16
2018-02-10T00:18:30.779Z,0.16
2018-02-10T00:19:30.774Z,0.09
2018-02-10T00:20:30.315Z,0.13
2018-02-10T00:21:30.064Z,0.17
2018-02-10T00:22:30.237Z,0.2
2018-02-10T00:23:30.094Z,0.13
2018-02-10T00:24:30.422Z,0.16
2018-02-10T00:25:30.955Z,0.14
2018-02-10T00:26:30.690Z,0.2
2018-02-10T00:27:30.942Z,0.06
2018-02-10T00:28:30.556Z,0.17
2018-02-10T00:29:31.262Z,0.14
2018-02-10T00:30:31.621Z,0.2
2018-02-10T00:31:31.234Z,0.2
2018-02-10T00:32:30.952Z,0.2
2018-02-10T00:33:30.826Z,0.13
2018-02-10T00:34:30.385Z,0.13
2018-02-10T00:35:30.898Z,0.2
2018-02-10T00:36:30.866Z,0.06
2018-02-10T00:37:30.652Z,0.19
2018-02-10T00:38:30.778Z,0.2
2018-02-10T00:39:31.772Z,0.08
2018-02-10T00:40:31.205Z,0.14
2018-02-10T00:41:31.425Z,0.19
2018-02-10T00:42:30.848Z,0.1
2018-02-10T00:43:30.746Z,0.21
2018-02-10T00:44:31.203Z,0.13
2018-02-10T00:45:31.097Z,0.14
2018-02-10T00:46:31.006Z,0.19
2018-02-10T00:47:30.998Z,0.09
2018-02-10T00:48:31.279Z,0.1
2018-02-10T00:49:31.349Z,0.06
2018-02-10T00:50:31.184Z,0.14
2018-02-10T00:51:31.580Z,0.16
2018-02-10T00:52:31.262Z,0.13
2018-02-10T00:53:31.384Z,0.17
2018-02-10T00:54:31.511Z,0.08
2018-02-10T00:55:31.993Z,0.09
2018-02-10T00:56:32.306Z,0.06
2018-02-10T00:57:32.033Z,0.2
2018-02-10T00:58:32.398Z,0.2
2018-02-10T00:59:31.866Z,0.17
2018-02-10T01:00:32.060Z,0.17
2018-02-10T01:01:31.856Z,0.17
2018-02-10T01:02:32.502Z,0.09
2018-02-10T01:03:32.325Z,0.05
2018-02-10T01:04:32.380Z,0.17
2018-02-10T01:05:32.614Z,0.06
2018-02-10T01:06:31.975Z,0.09
2018-02-10T01:07:32.525Z,0.05
2018-02-10T01:08:33.224Z,0.03
2018-02-10T01:09:34.164Z,0.13
2018-02-10T01:10:33.957Z,0.01
2018-02-10T01:11:34.290Z,0.03
2018-02-10T01:12:34.420Z,0.05
2018-02-10T01:13:35.068Z,0.06
2018-02-10T01:14:35.361Z,0.05
2018-02-10T01:15:34.666Z,0.06
2018-02-10T01:16:35.020Z,-0.01
2018-02-10T01:17:35.337Z,-0.02
2018-02-10T01:18:35.929Z,0.08
2018-02-10T01:19:35.687Z,0.05
2018-02-10T01:20:36.357Z,0.05
2018-02-10T01:21:35.777Z,-0.07
2018-02-10T01:22:36.012Z,0.08
2018-02-10T01:23:35.826Z,0.05
2018-02-10T01:24:36.635Z,-0.02
2018-02-10T01:25:37.298Z,0.05
2018-02-10T01:26:37.102Z,0.02
2018-02-10T01:27:37.385Z,-0.05
2018-02-10T01:28:37.433Z,0.06
2018-02-10T01:29:37.640Z,0.05
2018-02-10T01:30:38.352Z,-0.04
2018-02-10T01:31:38.608Z,-0.01
2018-02-10T01:32:37.924Z,0.02
2018-02-10T01:33:38.114Z,0.01
2018-02-10T01:34:38.823Z,-0.09
2018-02-10T01:35:39.312Z,0.05
2018-02-10T01:36:38.623Z,-0.07
2018-02-10T01:37:39.525Z,0.01
2018-02-10T01:38:39.600Z,-0.1
2018-02-10T01:39:39.938Z,-0.02
2018-02-10T01:40:39.636Z,-0.13
2018-02-10T01:41:39.816Z,-0.04
2018-02-10T01:42:40.344Z,-0.05
2018-02-10T01:43:40.155Z,-0.05
2018-02-10T01:44:39.889Z,-0.05
2018-02-10T01:45:39.559Z,-0.04
2018-02-10T01:46:39.708Z,-0.05
2018-02-10T01:47:40.206Z,-0.01
2018-02-10T01:48:40.938Z,-0.07
2018-02-10T01:49:40.237Z,-0.01
2018-02-10T01:50:40.638Z,-0.05
2018-02-10T01:51:40.040Z,-0.02
2018-02-10T01:52:40.454Z,0.01
2018-02-10T01:53:40.410Z,-0.1
2018-02-10T01:54:40.758Z,-0.1
2018-02-10T01:55:40.689Z,-0.13
2018-02-10T01:56:41.611Z,-0.02
2018-02-10T01:57:41.952Z,-0.15
2018-02-10T01:58:41.966Z,-0.09
2018-02-10T01:59:41.046Z,-0.1
2018-02-10T02:00:41.233Z,-0.04
2018-02-10T02:01:41.238Z,-0.01
2018-02-10T02:02:40.829Z,-0.04
2018-02-10T02:03:41.142Z,-0.09
2018-02-10T02:04:41.450Z,-0.04
2018-02-10T02:05:41.256Z,-0.09
2018-02-10T02:06:40.650Z,-0.04
2018-02-10T02:07:41.145Z,-0.16
2018-02-10T02:08:41.375Z,-0.07
2018-02-10T02:09:41.164Z,-0.13
2018-02-10T02:10:41.188Z,-0.15
2018-02-10T02:11:41.751Z,-0.13
2018-02-10T02:12:41.233Z,-0.04
2018-02-10T02:13:42.084Z,-0.1
2018-02-10T02:14:41.564Z,-0.09
2018-02-10T02:15:41.390Z,-0.01
2018-02-10T02:16:41.195Z,0.03
2018-02-10T02:17:41.864Z,-0.04
2018-02-10T02:18:41.149Z,-0.04
2018-02-10T02:19:42.401Z,-0.09
2018-02-10T02:20:41.693Z,-0.05
2018-02-10T02:21:41.480Z,-0.09
2018-02-10T02:22:41.764Z,-0.05
2018-02-10T02:23:42.097Z,-0.09
2018-02-10T02:24:42.570Z,-0.07
2018-02-10T02:25:42.675Z,-0.09
2018-02-10T02:26:42.691Z,-0.07
2018-02-10T02:27:43.298Z,-0.09
2018-02-10T02:28:42.819Z,-0.09
2018-02-10T02:29:42.552Z,-0.07
2018-02-10T02:30:43.012Z,0.01
2018-02-10T02:31:43.082Z,-0.12
2018-02-10T02:32:43.890Z,-0.04
2018-02-10T02:33:43.943Z,-0.04
2018-02-10T02:34:43.985Z,-0.1
2018-02-10T02:35:43.599Z,-0.07
2018-02-10T02:36:44.414Z,-0.05
2018-02-10T02:37:44.157Z,-0.07
2018-02-10T02:38:44.139Z,-0.1
2018-02-10T02:39:44.376Z,-0.07
2018-02-10T02:40:43.722Z,-0.04
2018-02-10T02:41:44.018Z,-0.1
2018-02-10T02:42:44.578Z,-0.07
2018-02-10T02:43:45.683Z,-0.15
2018-02-10T02:44:45.862Z,-0.15
2018-02-10T02:45:45.256Z,-0.15
2018-02-10T02:46:45.406Z,-0.22
2018-02-10T02:47:45.172Z,-0.1
2018-02-10T02:48:45.470Z,-0.18
2018-02-10T02:49:46.232Z,-0.09
2018-02-10T02:50:46.808Z,-0.13
2018-02-10T02:51:46.567Z,-0.1
2018-02-10T02:52:46.720Z,-0.16
2018-02-10T02:53:46.659Z,-0.12
2018-02-10T02:54:46.626Z,-0.04
2018-02-10T02:55:46.673Z,-0.07
2018-02-10T02:56:46.391Z,-0.07
2018-02-10T02:57:46.690Z,-0.05
2018-02-10T02:58:46.663Z,-0.05
2018-02-10T02:59:45.648Z,-0.04
2018-02-10T03:00:46.597Z,-0.15
2018-02-10T03:01:46.609Z,-0.05
2018-02-10T03:02:45.411Z,-0.09
2018-02-10T03:03:45.811Z,0.01
2018-02-10T03:04:45.757Z,-0.05
2018-02-10T03:05:45.548Z,-0.01
2018-02-10T03:06:46.155Z,0.06
2018-02-10T03:07:46.680Z,0.02
2018-02-10T03:08:46.547Z,-0.01
2018-02-10T03:09:46.801Z,0.02
2018-02-10T03:10:46.763Z,-0.02
2018-02-10T03:11:47.653Z,0.01
2018-02-10T03:12:47.188Z,-0.05
2018-02-10T03:13:48.636Z,-0.02
2018-02-10T03:14:47.768Z,-0.09
2018-02-10T03:15:47.716Z,-0.12
2018-02-10T03:16:47.766Z,-0.07
2018-02-10T03:17:47.717Z,-0.04
2018-02-10T03:18:48.006Z,-0.09
2018-02-10T03:19:47.758Z,-0.04
2018-02-10T03:20:47.586Z,-0.07
2018-02-10T03:21:47.764Z,-0.09
2018-02-10T03:22:47.784Z,0.01
2018-02-10T03:23:47.624Z,-0.04
2018-02-10T03:24:47.935Z,-0.07
2018-02-10T03:25:48.028Z,-0.04
2018-02-10T03:26:48.083Z,-0.09
2018-02-10T03:27:48.797Z,-0.04
2018-02-10T03:28:49.486Z,-0.1
2018-02-10T03:29:49.152Z,-0.09
2018-02-10T03:30:48.852Z,-0.07
2018-02-10T03:31:49.312Z,-0.07
2018-02-10T03:32:49.008Z,-0.09
2018-02-10T03:33:49.958Z,-0.1
2018-02-10T03:34:49.335Z,-0.05
2018-02-10T03:35:49.334Z,-0.04
2018-02-10T03:36:49.099Z,-0.01
2018-02-10T03:37:49.265Z,-0.04
2018-02-10T03:38:49.710Z,-0.07
2018-02-10T03:39:48.969Z,0.01
2018-02-10T03:40:50.417Z,0.01
2018-02-10T03:41:50.051Z,-0.1
2018-02-10T03:42:49.912Z,-0.1
2018-02-10T03:43:50.273Z,-0.01
2018-02-10T03:44:50.670Z,0.01
2018-02-10T03:45:50.792Z,-0.12
2018-02-10T03:46:51.225Z,-0.07
2018-02-10T03:47:51.190Z,-0.07
2018-02-10T03:48:51.890Z,-0.01
2018-02-10T03:49:50.653Z,-0.04
2018-02-10T03:50:50.955Z,-0.02
2018-02-10T03:51:50.937Z,-0.09
2018-02-10T03:52:51.555Z,-0.02
2018-02-10T03:53:51.691Z,-0.01
2018-02-10T03:54:52.328Z,-0.05
2018-02-10T03:55:52.508Z,0.02
2018-02-10T03:56:52.076Z,-0.01
2018-02-10T03:57:52.511Z,0.03
2018-02-10T03:58:52.492Z,0.03
2018-02-10T03:59:52.672Z,-0.01
2018-02-10T04:00:52.888Z,-0.07
2018-02-10T04:01:52.896Z,-0.09
2018-02-10T04:02:53.347Z,-0.04
2018-02-10T04:03:52.749Z,-0.1
2018-02-10T04:04:53.421Z,-0.09
2018-02-10T04:05:53.110Z,-0.1
2018-02-10T04:06:53.568Z,-0.12
2018-02-10T04:07:53.704Z,-0.13
2018-02-10T04:08:54.131Z,-0.04
2018-02-10T04:09:54.086Z,-0.15
2018-02-10T04:10:54.960Z,-0.02
2018-02-10T04:11:54.708Z,-0.05
2018-02-10T04:12:55.212Z,0.02
2018-02-10T04:13:55.444Z,-0.04
2018-02-10T04:14:55.746Z,0.02
2018-02-10T04:15:54.397Z,0.01
2018-02-10T04:16:54.710Z,0.01
2018-02-10T04:17:55.903Z,0.01
2018-02-10T04:18:55.614Z,-0.01
2018-02-10T04:19:55.646Z,-0.01
2018-02-10T04:20:55.695Z,-0.09
2018-02-10T04:21:56.004Z,-0.09
2018-02-10T04:22:56.031Z,0.02
2018-02-10T04:23:55.624Z,-0.07
2018-02-10T04:24:55.811Z,-0.05
2018-02-10T04:25:55.300Z,-0.05
2018-02-10T04:26:56.079Z,-0.01
2018-02-10T04:27:55.872Z,-0.02
2018-02-10T04:28:56.211Z,-0.02
2018-02-10T04:29:56.332Z,-0.01
2018-02-10T04:30:56.795Z,-0.04
2018-02-10T04:31:56.873Z,-0.09
2018-02-10T04:32:56.325Z,-0.09
2018-02-10T04:33:56.236Z,-0.07
2018-02-10T04:34:56.093Z,-0.1
2018-02-10T04:35:55.821Z,-0.04
2018-02-10T04:36:56.731Z,-0.02
2018-02-10T04:37:55.794Z,-0.02
2018-02-10T04:38:56.243Z,-0.12
2018-02-10T04:39:55.854Z,-0.02
2018-02-10T04:40:56.317Z,-0.07
2018-02-10T04:41:55.837Z,-0.1
2018-02-10T04:42:56.496Z,-0.12
2018-02-10T04:43:56.819Z,-0.09
2018-02-10T04:44:56.296Z,-0.13
2018-02-10T04:45:55.655Z,-0.13
2018-02-10T04:46:55.687Z,-0.13
2018-02-10T04:47:56.192Z,-0.25
2018-02-10T04:48:56.114Z,-0.19
2018-02-10T04:49:56.342Z,-0.16
2018-02-10T04:50:56.484Z,-0.16
2018-02-10T04:51:56.459Z,-0.22
2018-02-10T04:52:56.533Z,-0.2
2018-02-10T04:53:56.475Z,-0.2
2018-02-10T04:54:56.683Z,-0.2
2018-02-10T04:55:56.581Z,-0.16
2018-02-10T04:56:56.542Z,-0.18
2018-02-10T04:57:56.578Z,-0.19
2018-02-10T04:58:56.637Z,-0.22
2018-02-10T04:59:56.572Z,-0.23
2018-02-10T05:00:56.605Z,-0.18
2018-02-10T05:01:56.743Z,-0.23
2018-02-10T05:02:56.923Z,-0.09
2018-02-10T05:03:56.673Z,-0.16
2018-02-10T05:04:56.970Z,-0.18
2018-02-10T05:05:57.178Z,-0.25
2018-02-10T05:06:56.749Z,-0.25
2018-02-10T05:07:57.487Z,-0.16
2018-02-10T05:08:57.227Z,-0.19
2018-02-10T05:09:57.262Z,-0.12
2018-02-10T05:10:57.790Z,-0.13
2018-02-10T05:11:57.894Z,-0.25
2018-02-10T05:12:57.737Z,-0.1
2018-02-10T05:13:57.799Z,-0.12
2018-02-10T05:14:57.811Z,-0.13
2018-02-10T05:15:57.674Z,-0.1
2018-02-10T05:16:58.189Z,-0.13
2018-02-10T05:17:57.340Z,-0.18
2018-02-10T05:18:57.613Z,-0.19
2018-02-10T05:19:57.906Z,-0.22
2018-02-10T05:20:57.905Z,-0.13
2018-02-10T05:21:58.227Z,-0.16
2018-02-10T05:22:58.263Z,-0.16
2018-02-10T05:23:58.619Z,-0.12
2018-02-10T05:24:58.711Z,-0.2
2018-02-10T05:25:58.442Z,-0.13
2018-02-10T05:26:58.459Z,-0.22
2018-02-10T05:27:58.508Z,-0.09
2018-02-10T05:28:58.791Z,-0.25
2018-02-10T05:29:58.957Z,-0.2
2018-02-10T05:30:58.709Z,-0.22
2018-02-10T05:31:59.580Z,-0.23
2018-02-10T05:32:59.460Z,-0.04
2018-02-10T05:33:59.492Z,-0.09
2018-02-10T05:34:59.945Z,-0.13
2018-02-10T05:35:59.447Z,-0.19
2018-02-10T05:36:59.873Z,-0.15
2018-02-10T05:37:59.856Z,-0.07
2018-02-10T05:38:59.673Z,-0.12
2018-02-10T05:39:59.847Z,-0.13
2018-02-10T05:41:00.124Z,-0.1
2018-02-10T05:41:59.711Z,-0.05
2018-02-10T05:42:59.801Z,-0.15
2018-02-10T05:44:00.003Z,-0.07
2018-02-10T05:45:00.640Z,-0.16
2018-02-10T05:46:01.012Z,-0.07
2018-02-10T05:47:00.954Z,-0.05
2018-02-10T05:48:01.093Z,-0.01
2018-02-10T05:49:01.059Z,-0.05
2018-02-10T05:50:01.348Z,-0.05
2018-02-10T05:51:01.414Z,-0.13
2018-02-10T05:52:01.171Z,-0.07
2018-02-10T05:53:00.810Z,-0.05
2018-02-10T05:54:00.833Z,-0.01
2018-02-10T05:55:01.191Z,-0.04
2018-02-10T05:56:01.803Z,-0.12
2018-02-10T05:57:01.726Z,-0.07
2018-02-10T05:58:02.212Z,-0.05
2018-02-10T05:59:01.936Z,-0.05
2018-02-10T06:01:02.251Z,-0.07
2018-02-10T06:02:02.202Z,0.01
2018-02-10T06:03:02.659Z,0.03
2018-02-10T06:04:03.430Z,0.01
2018-02-10T06:05:03.730Z,0.01
2018-02-10T06:06:03.172Z,0.02
2018-02-10T06:07:04.009Z,-0.01
2018-02-10T06:08:03.680Z,-0.02
2018-02-10T06:09:03.663Z,-0.02
2018-02-10T06:10:04.425Z,-0.01
2018-02-10T06:11:04.482Z,-0.02
2018-02-10T06:12:04.137Z,0.06
2018-02-10T06:13:04.969Z,0.01
2018-02-10T06:14:04.497Z,0.01
2018-02-10T06:15:04.810Z,0.01
2018-02-10T06:16:05.039Z,-0.01
2018-02-10T06:17:05.143Z,0.08
2018-02-10T06:18:05.143Z,-0.09
2018-02-10T06:19:04.907Z,-0.01
2018-02-10T06:20:05.480Z,0.03
2018-02-10T06:21:05.190Z,-0.01
2018-02-10T06:22:04.955Z,-0.04
2018-02-10T06:23:04.991Z,-0.05
2018-02-10T06:24:05.543Z,-0.07
2018-02-10T06:25:05.423Z,-0.07
2018-02-10T06:26:04.781Z,-0.07
2018-02-10T06:27:05.055Z,-0.16
2018-02-10T06:28:05.357Z,0.02
2018-02-10T06:29:05.311Z,-0.09
2018-02-10T06:30:05.480Z,-0.1
2018-02-10T06:31:05.425Z,-0.12
2018-02-10T06:32:05.148Z,-0.01
2018-02-10T06:33:05.497Z,-0.04
2018-02-10T06:34:05.249Z,-0.07
2018-02-10T06:35:05.565Z,-0.04
2018-02-10T06:36:05.513Z,-0.07
2018-02-10T06:37:05.301Z,-0.15
2018-02-10T06:38:05.883Z,-0.07
2018-02-10T06:39:05.877Z,0.01
2018-02-10T06:40:05.926Z,0.01
2018-02-10T06:41:06.184Z,-0.1
2018-02-10T06:42:06.446Z,0.01
2018-02-10T06:43:06.557Z,0.14
2018-02-10T06:44:06.258Z,0.09
2018-02-10T06:45:06.906Z,0.1
2018-02-10T06:46:07.279Z,0.2
2018-02-10T06:47:07.048Z,0.27
2018-02-10T06:48:07.865Z,0.28
2018-02-10T06:49:07.653Z,0.26
2018-02-10T06:50:07.365Z,0.23
2018-02-10T06:51:08.020Z,0.31
2018-02-10T06:52:07.649Z,0.26
2018-02-10T06:53:07.608Z,0.19
2018-02-10T06:54:07.938Z,0.09
2018-02-10T06:55:07.886Z,0.13
2018-02-10T06:56:08.467Z,0.2
2018-02-10T06:57:08.667Z,0.2
2018-02-10T06:58:09.128Z,0.14
2018-02-10T06:59:09.367Z,0.21
2018-02-10T07:00:08.999Z,0.26
2018-02-10T07:01:10.086Z,0.34
2018-02-10T07:02:10.124Z,0.34
2018-02-10T07:03:10.100Z,0.37
2018-02-10T07:04:10.123Z,0.32
2018-02-10T07:05:10.478Z,0.45
2018-02-10T07:06:10.327Z,0.53
2018-02-10T07:07:10.753Z,0.42
2018-02-10T07:08:11.049Z,0.44
2018-02-10T07:09:11.058Z,0.41
2018-02-10T07:10:11.088Z,0.39
2018-02-10T07:11:10.577Z,0.34
2018-02-10T07:12:10.848Z,0.42
2018-02-10T07:13:11.357Z,0.35
2018-02-10T07:14:10.789Z,0.41
2018-02-10T07:15:11.298Z,0.37
2018-02-10T07:16:11.103Z,0.38
2018-02-10T07:17:11.080Z,0.41
2018-02-10T07:18:11.660Z,0.39
2018-02-10T07:19:11.628Z,0.39
2018-02-10T07:20:11.561Z,0.32
2018-02-10T07:21:11.970Z,0.34
2018-02-10T07:22:12.144Z,0.38
2018-02-10T07:23:12.372Z,0.35
2018-02-10T07:24:11.882Z,0.45
2018-02-10T07:25:12.354Z,0.47
2018-02-10T07:26:12.139Z,0.37
2018-02-10T07:27:12.655Z,0.37
2018-02-10T07:28:12.757Z,0.34
2018-02-10T07:29:13.082Z,0.37
2018-02-10T07:30:12.807Z,0.37
2018-02-10T07:31:12.825Z,0.38
2018-02-10T07:32:13.115Z,0.37
2018-02-10T07:33:13.030Z,0.39
2018-02-10T07:34:13.172Z,0.35
2018-02-10T07:35:13.470Z,0.42
2018-02-10T07:36:13.552Z,0.42
2018-02-10T07:37:13.535Z,0.34
2018-02-10T07:38:13.764Z,0.34
2018-02-10T07:39:13.423Z,0.32
2018-02-10T07:40:13.460Z,0.34
2018-02-10T07:41:13.738Z,0.44
2018-02-10T07:42:13.466Z,0.38
2018-02-10T07:43:13.790Z,0.34
2018-02-10T07:44:13.684Z,0.41
2018-02-10T07:45:13.811Z,0.34
2018-02-10T07:46:14.185Z,0.27
2018-02-10T07:47:14.304Z,0.35
2018-02-10T07:48:14.223Z,0.35
2018-02-10T07:49:14.645Z,0.28
2018-02-10T07:50:15.450Z,0.32
2018-02-10T07:51:14.796Z,0.26
2018-02-10T07:52:15.072Z,0.37
2018-02-10T07:53:15.412Z,0.42
2018-02-10T07:54:15.535Z,0.34
2018-02-10T07:55:15.618Z,0.42
2018-02-10T07:56:16.000Z,0.39
2018-02-10T07:57:16.537Z,0.37
2018-02-10T07:58:15.920Z,0.37
2018-02-10T07:59:16.477Z,0.34
2018-02-10T08:00:16.351Z,0.34
2018-02-10T08:01:16.774Z,0.37
2018-02-10T08:02:16.601Z,0.37
2018-02-10T08:03:16.483Z,0.45
2018-02-10T08:04:16.852Z,0.32
2018-02-10T08:05:17.114Z,0.34
2018-02-10T08:06:17.244Z,0.44
2018-02-10T08:07:17.712Z,0.44
2018-02-10T08:08:17.861Z,0.39
2018-02-10T08:09:18.124Z,0.47
2018-02-10T08:10:18.240Z,0.39
2018-02-10T08:11:18.570Z,0.5
2018-02-10T08:12:18.389Z,0.47
2018-02-10T08:13:18.303Z,0.6
2018-02-10T08:14:18.583Z,0.57
2018-02-10T08:15:18.106Z,0.58
2018-02-10T08:16:18.752Z,0.57
2018-02-10T08:17:18.147Z,0.56
2018-02-10T08:18:18.416Z,0.57
2018-02-10T08:19:18.695Z,0.63
2018-02-10T08:20:18.980Z,0.69
2018-02-10T08:21:18.992Z,0.64
2018-02-10T08:22:18.860Z,0.67
2018-02-10T08:23:19.460Z,0.72
2018-02-10T08:24:19.486Z,0.74
2018-02-10T08:25:19.863Z,0.84
2018-02-10T08:26:19.677Z,0.85
2018-02-10T08:27:19.649Z,0.81
2018-02-10T08:28:19.943Z,0.85
2018-02-10T08:29:20.348Z,0.92
2018-02-10T08:30:20.335Z,0.84
2018-02-10T08:31:20.781Z,0.85
2018-02-10T08:32:20.557Z,0.97
2018-02-10T08:33:20.684Z,0.93
2018-02-10T08:34:20.964Z,1.03
2018-02-10T08:35:21.379Z,0.99
2018-02-10T08:36:21.430Z,1.07
2018-02-10T08:37:21.206Z,1.11
2018-02-10T08:38:23.085Z,1.12
2018-02-10T08:39:21.824Z,1.1
2018-02-10T08:40:21.990Z,1.08
2018-02-10T08:41:22.173Z,1.04
2018-02-10T08:42:22.269Z,1.1
2018-02-10T08:43:22.277Z,1.11
2018-02-10T08:44:22.311Z,1.11
2018-02-10T08:45:22.604Z,1.11
2018-02-10T08:46:22.422Z,1.1
2018-02-10T08:47:22.531Z,1.1
2018-02-10T08:48:22.865Z,1.08
2018-02-10T08:49:22.636Z,1.08
2018-02-10T08:50:22.642Z,1.1
2018-02-10T08:51:23.043Z,1.07
2018-02-10T08:52:22.804Z,1.18
2018-02-10T08:53:22.853Z,1.17
2018-02-10T08:54:22.967Z,1.2
2018-02-10T08:55:23.293Z,1.28
2018-02-10T08:56:23.181Z,1.26
2018-02-10T08:57:23.756Z,1.28
2018-02-10T08:58:23.856Z,1.28
2018-02-10T08:59:24.316Z,1.24
2018-02-10T09:00:23.818Z,1.26
2018-02-10T09:01:23.825Z,1.26
2018-02-10T09:02:24.064Z,1.28
2018-02-10T09:03:24.070Z,1.26
2018-02-10T09:04:24.437Z,1.33
2018-02-10T09:05:25.100Z,1.36
2018-02-10T09:06:24.851Z,1.33
2018-02-10T09:07:24.974Z,1.3
2018-02-10T09:08:25.610Z,1.36
2018-02-10T09:09:26.043Z,1.39
2018-02-10T09:10:26.602Z,1.33
2018-02-10T09:11:26.309Z,1.36
2018-02-10T09:12:26.528Z,1.38
2018-02-10T09:13:26.487Z,1.33
2018-02-10T09:14:26.869Z,1.32
2018-02-10T09:15:26.893Z,1.39
2018-02-10T09:16:26.745Z,1.33
2018-02-10T09:17:27.480Z,1.38
2018-02-10T09:18:27.292Z,1.39
2018-02-10T09:19:27.062Z,1.39
2018-02-10T09:20:27.898Z,1.4
2018-02-10T09:21:27.544Z,1.38
2018-02-10T09:22:27.286Z,1.42
2018-02-10T09:23:27.310Z,1.39
2018-02-10T09:24:27.803Z,1.39
2018-02-10T09:25:28.140Z,1.42
2018-02-10T09:26:27.922Z,1.4
2018-02-10T09:27:28.223Z,1.39
2018-02-10T09:28:28.853Z,1.38
2018-02-10T09:29:28.894Z,1.36
2018-02-10T09:30:29.169Z,1.4
2018-02-10T09:31:30.349Z,1.46
2018-02-10T09:32:29.518Z,1.44
2018-02-10T09:33:29.449Z,1.4
2018-02-10T09:34:29.458Z,1.5
2018-02-10T09:35:29.985Z,1.46
2018-02-10T09:36:29.847Z,1.53
2018-02-10T09:37:30.092Z,1.51
2018-02-10T09:38:30.133Z,1.48
2018-02-10T09:39:29.825Z,1.47
2018-02-10T09:40:29.680Z,1.54
2018-02-10T09:41:29.949Z,1.58
2018-02-10T09:42:30.372Z,1.64
2018-02-10T09:43:29.858Z,1.61
2018-02-10T09:44:30.417Z,1.6
2018-02-10T09:45:30.508Z,1.61
2018-02-10T09:46:29.983Z,1.58
2018-02-10T09:47:30.255Z,1.65
2018-02-10T09:48:30.705Z,1.68
2018-02-10T09:49:30.603Z,1.65
2018-02-10T09:50:30.946Z,1.64
2018-02-10T09:51:30.509Z,1.6
2018-02-10T09:52:31.348Z,1.71
2018-02-10T09:53:31.127Z,1.64
2018-02-10T09:54:30.780Z,1.72
2018-02-10T09:55:31.105Z,1.74
2018-02-10T09:56:31.462Z,1.68
2018-02-10T09:57:31.390Z,1.69
2018-02-10T09:58:31.414Z,1.72
2018-02-10T09:59:31.437Z,1.79
2018-02-10T10:00:31.452Z,1.82
2018-02-10T10:01:30.962Z,1.78
2018-02-10T10:02:31.349Z,1.92
2018-02-10T10:03:31.731Z,1.89
2018-02-10T10:04:32.133Z,1.94
2018-02-10T10:05:32.539Z,1.92
2018-02-10T10:06:32.402Z,1.92
2018-02-10T10:07:33.049Z,1.97
2018-02-10T10:08:33.087Z,1.94
2018-02-10T10:09:33.337Z,1.94
2018-02-10T10:10:33.024Z,2.06
2018-02-10T10:11:33.419Z,2.06
2018-02-10T10:12:32.930Z,2.08
2018-02-10T10:13:33.179Z,2.11
2018-02-10T10:14:33.305Z,2.13
2018-02-10T10:15:33.349Z,2.11
2018-02-10T10:16:33.407Z,2.13
2018-02-10T10:17:33.810Z,2.13
2018-02-10T10:18:33.564Z,2.06
2018-02-10T10:19:34.241Z,2.16
2018-02-10T10:20:33.985Z,2.04
2018-02-10T10:21:33.984Z,2.15
2018-02-10T10:22:34.360Z,2.12
2018-02-10T10:23:34.660Z,2.18
2018-02-10T10:24:34.682Z,2.22
2018-02-10T10:25:35.078Z,2.24
2018-02-10T10:26:35.466Z,2.27
2018-02-10T10:27:35.454Z,2.36
2018-02-10T10:28:35.474Z,2.24
2018-02-10T10:29:35.575Z,2.36
2018-02-10T10:30:35.658Z,2.4
2018-02-10T10:31:36.327Z,2.4
2018-02-10T10:32:36.187Z,2.33
2018-02-10T10:33:36.215Z,2.4
2018-02-10T10:34:36.522Z,2.42
2018-02-10T10:35:36.923Z,2.3
2018-02-10T10:36:36.938Z,2.36
2018-02-10T10:37:36.487Z,2.38
2018-02-10T10:38:36.912Z,2.47
2018-02-10T10:39:36.769Z,2.58
2018-02-10T10:40:37.052Z,2.49
2018-02-10T10:41:37.709Z,2.6
2018-02-10T10:42:37.575Z,2.76
2018-02-10T10:43:37.595Z,2.67
2018-02-10T10:44:37.956Z,2.72
2018-02-10T10:45:38.616Z,2.7
2018-02-10T10:46:38.369Z,2.77
2018-02-10T10:47:38.429Z,2.9
2018-02-10T10:48:38.155Z,2.88
2018-02-10T10:49:38.158Z,2.95
2018-02-10T10:50:38.632Z,3.01
2018-02-10T10:51:38.743Z,2.99
2018-02-10T10:52:39.287Z,3.06
2018-02-10T10:53:39.059Z,3.09
2018-02-10T10:54:39.078Z,3.19
2018-02-10T10:55:39.204Z,3.32
2018-02-10T10:56:39.858Z,3.32
2018-02-10T10:57:40.261Z,3.4
2018-02-10T10:58:40.256Z,3.48
2018-02-10T10:59:40.437Z,3.63
2018-02-10T11:00:40.918Z,3.76
2018-02-10T11:01:40.444Z,3.85
2018-02-10T11:02:40.594Z,3.89
2018-02-10T11:03:41.076Z,3.94
2018-02-10T11:04:40.776Z,4.04
2018-02-10T11:05:40.757Z,4.18
2018-02-10T11:06:40.348Z,4.38
2018-02-10T11:07:40.607Z,4.53
2018-02-10T11:08:41.182Z,4.58
2018-02-10T11:09:41.104Z,4.66
2018-02-10T11:10:40.581Z,4.71
2018-02-10T11:11:40.934Z,4.75
2018-02-10T11:12:40.992Z,4.83
2018-02-10T11:13:41.422Z,4.87
2018-02-10T11:14:41.443Z,4.95
2018-02-10T11:15:41.080Z,5.06
2018-02-10T11:16:41.438Z,5.13
2018-02-10T11:17:41.708Z,5.18
2018-02-10T11:18:41.800Z,5.26
2018-02-10T11:19:41.819Z,5.51
2018-02-10T11:20:41.861Z,5.59
2018-02-10T11:21:41.916Z,5.81
2018-02-10T11:22:42.177Z,6.02
2018-02-10T11:23:42.485Z,6.14
2018-02-10T11:24:42.438Z,6.26
2018-02-10T11:25:42.664Z,6.43
2018-02-10T11:26:42.607Z,6.61
2018-02-10T11:27:43.223Z,6.78
2018-02-10T11:28:43.117Z,7
2018-02-10T11:29:43.355Z,7
2018-02-10T11:30:43.839Z,7.27
2018-02-10T11:31:43.799Z,7.54
2018-02-10T11:32:43.806Z,7.88
2018-02-10T11:33:44.198Z,8.43
2018-02-10T11:34:44.548Z,8.69
2018-02-10T11:35:44.569Z,9.14
2018-02-10T11:36:44.719Z,9.16
2018-02-10T11:37:44.851Z,9.29
2018-02-10T11:38:45.536Z,9.53
2018-02-10T11:39:45.574Z,9.47
2018-02-10T11:40:45.358Z,9.29
2018-02-10T11:41:45.667Z,9.19
2018-02-10T11:42:45.883Z,9.48
2018-02-10T11:43:45.865Z,9.88
2018-02-10T11:44:45.713Z,10.07
2018-02-10T11:45:46.194Z,9.92
2018-02-10T11:46:46.184Z,9.84
2018-02-10T11:47:46.220Z,9.89
2018-02-10T11:48:46.178Z,9.74
2018-02-10T11:49:46.676Z,9.75
2018-02-10T11:50:46.468Z,9.81
2018-02-10T11:51:46.435Z,9.93
2018-02-10T11:52:46.422Z,10.25
2018-02-10T11:53:46.853Z,10.31
2018-02-10T11:54:47.305Z,10.61
2018-02-10T11:55:47.736Z,10.98
2018-02-10T11:56:48.104Z,11.28
2018-02-10T11:57:48.157Z,11.46
2018-02-10T11:58:48.156Z,11.63
2018-02-10T11:59:48.178Z,11.23
2018-02-10T12:00:48.209Z,11.09
2018-02-10T12:01:48.018Z,11.15
2018-02-10T12:02:48.765Z,11.27
2018-02-10T12:03:48.635Z,11.39
2018-02-10T12:04:48.784Z,11.39
2018-02-10T12:05:49.131Z,11.18
2018-02-10T12:06:49.211Z,10.94
2018-02-10T12:07:49.619Z,10.59
2018-02-10T12:08:49.926Z,10.17
2018-02-10T12:09:49.925Z,9.81
2018-02-10T12:10:49.963Z,9.63
2018-02-10T12:11:50.166Z,9.52
2018-02-10T12:12:50.600Z,9.39
2018-02-10T12:13:50.600Z,9.44
2018-02-10T12:14:50.519Z,9.37
2018-02-10T12:15:50.514Z,9.37
2018-02-10T12:16:50.796Z,9.23
2018-02-10T12:17:50.798Z,9
2018-02-10T12:18:50.850Z,9.01
2018-02-10T12:19:50.613Z,9.14
2018-02-10T12:20:51.101Z,9.11
2018-02-10T12:21:51.542Z,8.97
2018-02-10T12:22:51.263Z,8.79
2018-02-10T12:23:52.085Z,8.62
2018-02-10T12:24:51.963Z,8.28
2018-02-10T12:25:52.877Z,8.04
2018-02-10T12:26:52.328Z,7.58
2018-02-10T12:27:52.505Z,7.22
2018-02-10T12:28:52.749Z,6.93
2018-02-10T12:29:53.445Z,6.47
2018-02-10T12:30:53.454Z,6.25
2018-02-10T12:31:53.532Z,6.18
2018-02-10T12:32:53.568Z,6.02
2018-02-10T12:33:53.665Z,6.02
2018-02-10T12:34:53.803Z,6.06
2018-02-10T12:35:53.639Z,6.05
2018-02-10T12:36:54.328Z,6.13
2018-02-10T12:37:54.806Z,6.17
2018-02-10T12:38:55.855Z,6.26
2018-02-10T12:39:55.662Z,6.13
2018-02-10T12:40:55.690Z,6.25
2018-02-10T12:41:55.688Z,6.25
2018-02-10T12:42:55.218Z,6.1
2018-02-10T12:43:55.773Z,6.09
2018-02-10T12:44:55.080Z,5.95
2018-02-10T12:45:55.600Z,5.85
2018-02-10T12:46:54.617Z,5.91
2018-02-10T12:47:55.057Z,5.84
2018-02-10T12:48:54.768Z,5.8
2018-02-10T12:49:55.140Z,5.63
2018-02-10T12:50:55.109Z,5.52
2018-02-10T12:51:55.279Z,5.39
2018-02-10T12:52:55.238Z,5.33
2018-02-10T12:53:55.667Z,5.37
2018-02-10T12:54:55.471Z,5.39
2018-02-10T12:55:55.788Z,5.44
2018-02-10T12:56:56.107Z,5.51
2018-02-10T12:57:55.871Z,5.57
2018-02-10T12:58:55.995Z,5.57
2018-02-10T12:59:56.236Z,5.62
2018-02-10T13:00:56.469Z,5.54
2018-02-10T13:01:56.116Z,5.55
2018-02-10T13:02:56.446Z,5.59
2018-02-10T13:03:57.214Z,5.46
2018-02-10T13:04:56.822Z,5.45
2018-02-10T13:05:56.754Z,5.37
2018-02-10T13:06:57.595Z,5.21
2018-02-10T13:07:57.537Z,5.1
2018-02-10T13:08:57.725Z,4.92
2018-02-10T13:09:57.983Z,4.88
2018-02-10T13:10:58.228Z,4.87
2018-02-10T13:11:58.497Z,4.87
2018-02-10T13:12:58.268Z,4.91
2018-02-10T13:13:58.285Z,4.98
2018-02-10T13:14:58.301Z,5